createdAt,value
2023-02-22T00:01:07.377Z,8.90
2023-02-22T00:03:34.937Z,9.04
2023-02-22T00:06:05.812Z,9.01
2023-02-22T00:08:36.562Z,8.89
2023-02-22T00:11:08.692Z,8.80
2023-02-22T00:13:38.312Z,8.76
2023-02-22T00:16:06.955Z,8.72
2023-02-22T00:18:34.231Z,8.62
2023-02-22T00:21:01.885Z,8.92
2023-02-22T00:23:31.770Z,8.98
2023-02-22T00:26:00.214Z,9.08
2023-02-22T00:28:27.755Z,9.12
2023-02-22T00:30:55.362Z,9.18
2023-02-22T00:33:23.250Z,9.19
2023-02-22T00:35:50.509Z,8.89
2023-02-22T00:38:19.307Z,8.77
2023-02-22T00:40:46.772Z,8.96
2023-02-22T00:43:14.915Z,8.93
2023-02-22T00:45:42.808Z,9.07
2023-02-22T00:48:11.001Z,9.03
2023-02-22T00:50:38.241Z,9.20
2023-02-22T00:53:07.225Z,9.21
2023-02-22T00:55:37.777Z,9.01
2023-02-22T00:58:06.491Z,9.04
2023-02-22T01:00:39.804Z,9.05
2023-02-22T01:03:10.619Z,9.00
2023-02-22T01:05:38.247Z,8.98
2023-02-22T01:08:08.692Z,9.05
2023-02-22T01:10:37.918Z,8.91
2023-02-22T01:13:08.721Z,8.99
2023-02-22T01:15:39.656Z,8.88
2023-02-22T01:18:07.602Z,9.10
2023-02-22T01:20:35.346Z,8.93
2023-02-22T01:23:06.504Z,8.89
2023-02-22T01:25:35.822Z,8.90
2023-02-22T01:28:06.762Z,9.00
2023-02-22T01:30:36.412Z,9.10
2023-02-22T01:33:07.341Z,9.10
2023-02-22T01:35:41.128Z,9.04
2023-02-22T01:38:10.514Z,8.71
2023-02-22T01:40:41.930Z,8.80
2023-02-22T01:43:32.584Z,8.66
2023-02-22T01:46:26.708Z,8.60
2023-02-22T01:49:06.317Z,8.86
2023-02-22T01:51:42.984Z,8.88
2023-02-22T01:54:29.037Z,8.89
2023-02-22T01:57:24.654Z,8.77
2023-02-22T01:59:58.782Z,8.89
2023-02-22T02:02:27.435Z,8.84
2023-02-22T02:04:57.604Z,8.68
2023-02-22T02:07:24.892Z,8.84
2023-02-22T02:10:02.991Z,8.65
2023-02-22T02:12:35.877Z,8.76
2023-02-22T02:15:28.900Z,8.68
2023-02-22T02:18:03.328Z,8.51
2023-02-22T02:21:08.050Z,8.52
2023-02-22T02:24:28.492Z,8.54
2023-02-22T02:27:19.297Z,8.35
2023-02-22T02:30:35.213Z,8.35
2023-02-22T02:33:33.484Z,8.43
2023-02-22T02:36:12.883Z,8.29
2023-02-22T02:38:57.489Z,8.44
2023-02-22T02:41:43.038Z,8.44
2023-02-22T02:44:24.614Z,8.28
2023-02-22T02:47:01.100Z,8.19
2023-02-22T02:49:45.909Z,8.15
2023-02-22T02:52:18.084Z,8.42
2023-02-22T02:54:47.027Z,8.47
2023-02-22T02:57:14.247Z,8.50
2023-02-22T02:59:41.485Z,8.46
2023-02-22T03:02:52.268Z,8.52
2023-02-22T03:05:43.887Z,8.46
2023-02-22T03:08:32.504Z,8.36
2023-02-22T03:11:16.418Z,8.20
2023-02-22T03:14:25.283Z,8.29
2023-02-22T03:17:05.230Z,8.42
2023-02-22T03:19:43.820Z,8.25
2023-02-22T03:22:34.867Z,7.99
2023-02-22T03:25:10.209Z,7.98
2023-02-22T03:27:46.408Z,7.88
2023-02-22T03:30:45.412Z,8.05
2023-02-22T03:33:28.702Z,7.99
2023-02-22T03:36:00.853Z,7.86
2023-02-22T03:38:33.667Z,7.81
2023-02-22T03:41:04.912Z,7.79
2023-02-22T03:43:41.479Z,8.10
2023-02-22T03:46:13.077Z,8.32
2023-02-22T03:48:57.471Z,8.42
2023-02-22T03:51:24.930Z,8.36
2023-02-22T03:53:53.631Z,8.37
2023-02-22T03:56:35.586Z,8.33
2023-02-22T03:59:09.275Z,8.08
2023-02-22T04:01:37.193Z,8.39
2023-02-22T04:04:05.069Z,8.17
2023-02-22T04:06:32.436Z,8.45
2023-02-22T04:08:59.704Z,8.37
2023-02-22T04:11:26.829Z,8.46
2023-02-22T04:13:54.837Z,8.41
2023-02-22T04:16:22.053Z,8.20
2023-02-22T04:18:49.299Z,8.31
2023-02-22T04:21:16.752Z,8.42
2023-02-22T04:23:44.183Z,8.17
2023-02-22T04:26:11.455Z,8.11
2023-02-22T04:28:38.619Z,8.08
2023-02-22T04:31:05.905Z,7.90
2023-02-22T04:33:33.215Z,7.93
2023-02-22T04:36:00.483Z,7.74
2023-02-22T04:38:27.898Z,7.73
2023-02-22T04:40:55.418Z,7.70
2023-02-22T04:43:22.952Z,7.83
2023-02-22T04:45:50.117Z,7.88
2023-02-22T04:48:17.609Z,7.96
2023-02-22T04:50:47.555Z,7.95
2023-02-22T04:53:14.906Z,7.86
2023-02-22T04:55:42.041Z,7.91
2023-02-22T04:58:09.631Z,7.91
2023-02-22T05:00:36.885Z,8.05
2023-02-22T05:03:04.257Z,8.11
2023-02-22T05:05:31.425Z,8.08
2023-02-22T05:07:58.571Z,8.06
2023-02-22T05:10:25.789Z,7.95
2023-02-22T05:12:52.997Z,7.97
2023-02-22T05:15:22.424Z,7.95
2023-02-22T05:17:49.586Z,7.72
2023-02-22T05:20:35.286Z,7.90
2023-02-22T05:23:03.905Z,7.77
2023-02-22T05:25:33.146Z,7.89
2023-02-22T05:28:08.859Z,7.70
2023-02-22T05:30:39.679Z,7.67
2023-02-22T05:33:08.084Z,7.85
2023-02-22T05:35:37.027Z,7.67
2023-02-22T05:38:05.256Z,7.78
2023-02-22T05:40:33.306Z,7.72
2023-02-22T05:43:02.172Z,7.69
2023-02-22T05:45:29.843Z,7.74
2023-02-22T05:47:57.786Z,7.80
2023-02-22T05:50:25.756Z,7.68
2023-02-22T05:52:54.549Z,7.43
2023-02-22T05:55:23.855Z,7.48
2023-02-22T05:57:52.537Z,7.49
2023-02-22T06:00:29.064Z,7.10
2023-02-22T06:02:58.939Z,7.26
2023-02-22T06:05:27.568Z,6.85
2023-02-22T06:07:56.145Z,6.86
2023-02-22T06:10:23.674Z,7.19
2023-02-22T06:12:52.384Z,7.12
2023-02-22T06:15:22.573Z,6.85
2023-02-22T06:17:51.413Z,6.65
2023-02-22T06:20:22.659Z,6.82
2023-02-22T06:22:53.230Z,6.91
2023-02-22T06:25:25.296Z,6.75
2023-02-22T06:27:52.617Z,6.67
2023-02-22T06:30:23.924Z,6.73
2023-02-22T06:32:51.234Z,6.71
2023-02-22T06:35:18.850Z,6.58
2023-02-22T06:37:46.642Z,6.71
2023-02-22T06:40:15.429Z,6.58
2023-02-22T06:42:42.578Z,6.76
2023-02-22T06:45:10.565Z,6.90
2023-02-22T06:47:41.437Z,6.80
2023-02-22T06:50:22.505Z,6.85
2023-02-22T06:52:49.840Z,6.85
2023-02-22T06:55:26.424Z,7.02
2023-02-22T06:57:53.849Z,7.01
2023-02-22T07:00:25.112Z,6.94
2023-02-22T07:02:53.124Z,7.03
2023-02-22T07:05:22.930Z,6.99
2023-02-22T07:07:53.202Z,7.22
2023-02-22T07:10:29.699Z,7.32
2023-02-22T07:12:57.024Z,7.15
2023-02-22T07:15:27.984Z,7.31
2023-02-22T07:17:56.216Z,7.28
2023-02-22T07:20:25.331Z,7.27
2023-02-22T07:22:52.904Z,7.26
2023-02-22T07:25:22.484Z,7.39
2023-02-22T07:27:49.640Z,7.32
2023-02-22T07:30:25.843Z,7.38
2023-02-22T07:32:55.481Z,7.50
2023-02-22T07:35:39.447Z,7.61
2023-02-22T07:38:08.191Z,7.59
2023-02-22T07:40:37.488Z,7.51
2023-02-22T07:43:17.276Z,7.69
2023-02-22T07:45:45.205Z,7.86
2023-02-22T07:48:17.102Z,7.70
2023-02-22T07:50:45.449Z,7.70
2023-02-22T07:53:19.548Z,7.70
2023-02-22T07:55:50.877Z,7.93
2023-02-22T07:58:23.692Z,8.64
2023-02-22T08:00:51.459Z,8.65
2023-02-22T08:03:21.809Z,8.95
2023-02-22T08:05:53.249Z,9.32
2023-02-22T08:08:21.024Z,9.61
2023-02-22T08:10:50.661Z,9.18
2023-02-22T08:13:19.563Z,8.84
2023-02-22T08:15:49.204Z,8.68
2023-02-22T08:18:19.088Z,8.79
2023-02-22T08:20:49.523Z,8.76
2023-02-22T08:23:19.180Z,8.87
2023-02-22T08:25:46.444Z,8.95
2023-02-22T08:28:17.984Z,9.19
2023-02-22T08:30:45.190Z,9.30
2023-02-22T08:33:16.807Z,9.25
2023-02-22T08:35:44.137Z,9.24
2023-02-22T08:38:26.835Z,9.20
2023-02-22T08:40:54.664Z,9.39
2023-02-22T08:43:23.259Z,9.45
2023-02-22T08:45:51.593Z,9.63
2023-02-22T08:48:20.260Z,10.19
2023-02-22T08:50:47.775Z,10.95
2023-02-22T08:53:16.886Z,11.37
2023-02-22T08:55:44.904Z,10.53
2023-02-22T08:58:13.427Z,10.23
2023-02-22T09:00:43.173Z,10.04
2023-02-22T09:03:14.613Z,10.03
2023-02-22T09:05:43.831Z,9.80
2023-02-22T09:08:11.093Z,9.74
2023-02-22T09:10:38.469Z,9.70
2023-02-22T09:13:06.220Z,9.81
2023-02-22T09:15:36.129Z,9.97
2023-02-22T09:18:08.377Z,10.16
2023-02-22T09:20:36.143Z,10.19
2023-02-22T09:23:06.365Z,10.27
2023-02-22T09:25:36.272Z,10.41
2023-02-22T09:28:03.494Z,10.69
2023-02-22T09:30:35.462Z,10.94
2023-02-22T09:33:10.202Z,11.26
2023-02-22T09:35:42.378Z,12.30
2023-02-22T09:38:11.407Z,12.96
2023-02-22T09:40:45.455Z,13.15
2023-02-22T09:43:32.608Z,13.95
2023-02-22T09:46:36.251Z,13.31
2023-02-22T09:49:31.211Z,13.74
2023-02-22T09:52:24.039Z,13.42
2023-02-22T09:55:28.794Z,14.33
2023-02-22T09:58:02.711Z,14.83
2023-02-22T10:00:43.706Z,15.18
2023-02-22T10:03:36.459Z,14.95
2023-02-22T10:06:11.877Z,14.84
2023-02-22T10:08:39.193Z,14.56
2023-02-22T10:11:31.339Z,15.08
2023-02-22T10:14:42.955Z,14.61
2023-02-22T10:17:13.934Z,14.69
2023-02-22T10:20:13.775Z,14.81
2023-02-22T10:23:44.139Z,14.74
2023-02-22T10:26:12.252Z,14.86
2023-02-22T10:28:52.543Z,14.48
2023-02-22T10:31:28.283Z,14.88
2023-02-22T10:34:01.916Z,14.75
2023-02-22T10:36:29.747Z,14.53
2023-02-22T10:39:20.685Z,14.36
2023-02-22T10:41:57.249Z,14.15
2023-02-22T10:44:24.917Z,14.39
2023-02-22T10:46:53.439Z,14.55
2023-02-22T10:49:24.381Z,13.92
2023-02-22T10:52:02.185Z,13.91
2023-02-22T10:54:40.849Z,14.34
2023-02-22T10:57:12.076Z,14.36
2023-02-22T10:59:42.439Z,14.23
2023-02-22T11:02:23.365Z,14.23
2023-02-22T11:04:54.726Z,14.51
2023-02-22T11:07:30.144Z,14.09
2023-02-22T11:10:00.739Z,13.83
2023-02-22T11:12:37.438Z,13.88
2023-02-22T11:15:16.521Z,13.88
2023-02-22T11:17:50.502Z,13.76
2023-02-22T11:20:39.596Z,13.95
2023-02-22T11:23:08.199Z,13.73
2023-02-22T11:25:40.255Z,13.63
2023-02-22T11:28:14.950Z,13.91
2023-02-22T11:30:48.164Z,13.88
2023-02-22T11:33:23.897Z,13.85
2023-02-22T11:35:57.083Z,13.78
2023-02-22T11:38:29.142Z,14.20
2023-02-22T11:41:19.597Z,14.07
2023-02-22T11:43:49.791Z,13.98
2023-02-22T11:46:23.345Z,14.09
2023-02-22T11:49:09.021Z,14.22
2023-02-22T11:52:36.596Z,14.08
2023-02-22T11:55:36.472Z,13.80
2023-02-22T11:58:36.644Z,14.18
2023-02-22T12:01:37.905Z,13.96
2023-02-22T12:04:42.912Z,13.80
2023-02-22T12:07:31.815Z,13.76
2023-02-22T12:10:23.335Z,13.59
2023-02-22T12:13:23.945Z,13.62
2023-02-22T12:16:09.137Z,14.00
2023-02-22T12:19:28.212Z,13.92
2023-02-22T12:22:07.800Z,13.89
2023-02-22T12:25:03.938Z,14.18
2023-02-22T12:27:45.791Z,13.97
2023-02-22T12:30:16.781Z,14.08
2023-02-22T12:32:51.352Z,14.06
2023-02-22T12:35:27.079Z,14.15
2023-02-22T12:37:59.927Z,14.04
2023-02-22T12:40:57.044Z,14.11
2023-02-22T12:43:36.389Z,14.40
2023-02-22T12:46:30.915Z,14.26
2023-02-22T12:49:13.801Z,14.32
2023-02-22T12:52:21.651Z,14.52
2023-02-22T12:55:04.413Z,14.21
2023-02-22T12:57:49.182Z,14.37
2023-02-22T13:00:39.422Z,14.44
2023-02-22T13:03:32.788Z,14.73
2023-02-22T13:06:36.223Z,14.61
2023-02-22T13:09:55.226Z,14.64
2023-02-22T13:12:52.350Z,14.54
2023-02-22T13:15:39.563Z,14.27
2023-02-22T13:19:03.766Z,14.42
2023-02-22T13:21:33.829Z,14.32
2023-02-22T13:24:32.944Z,14.46
2023-02-22T13:27:13.175Z,14.54
2023-02-22T13:29:46.703Z,14.48
2023-02-22T13:32:51.502Z,14.38
2023-02-22T13:35:55.435Z,14.45
2023-02-22T13:38:53.618Z,14.46
2023-02-22T13:41:33.540Z,14.52
2023-02-22T13:44:15.375Z,14.35
2023-02-22T13:47:25.624Z,14.38
2023-02-22T13:50:44.837Z,14.41
2023-02-22T13:53:21.267Z,14.41
2023-02-22T13:55:56.998Z,14.51
2023-02-22T13:58:25.660Z,14.45
2023-02-22T14:00:56.956Z,14.22
2023-02-22T14:03:40.583Z,14.16
2023-02-22T14:06:30.474Z,14.13
2023-02-22T14:08:57.687Z,14.10
2023-02-22T14:11:33.847Z,14.09
2023-02-22T14:14:00.993Z,14.15
2023-02-22T14:16:30.696Z,14.00
2023-02-22T14:19:20.614Z,14.03
2023-02-22T14:22:03.968Z,13.98
2023-02-22T14:24:45.410Z,13.92
2023-02-22T14:27:15.460Z,13.93
2023-02-22T14:29:56.227Z,13.89
2023-02-22T14:32:35.394Z,13.87
2023-02-22T14:35:26.412Z,13.90
2023-02-22T14:38:00.405Z,13.93
2023-02-22T14:40:36.126Z,13.83
2023-02-22T14:43:23.830Z,14.01
2023-02-22T14:46:00.245Z,13.88
2023-02-22T14:48:39.325Z,13.88
2023-02-22T14:51:21.959Z,13.79
2023-02-22T14:53:53.932Z,13.76
2023-02-22T14:56:41.174Z,13.71
2023-02-22T14:59:24.027Z,13.76
2023-02-22T15:02:11.798Z,13.74
2023-02-22T15:04:43.761Z,13.59
2023-02-22T15:07:30.816Z,13.83
2023-02-22T15:10:25.053Z,13.78
2023-02-22T15:13:12.320Z,13.66
2023-02-22T15:15:49.658Z,13.59
2023-02-22T15:18:43.043Z,13.56
2023-02-22T15:21:17.877Z,13.53
2023-02-22T15:23:53.516Z,13.46
2023-02-22T15:26:38.208Z,13.50
2023-02-22T15:29:32.956Z,13.62
2023-02-22T15:32:00.187Z,13.48
2023-02-22T15:34:31.727Z,13.28
2023-02-22T15:37:25.390Z,13.36
2023-02-22T15:39:59.288Z,13.35
2023-02-22T15:42:30.312Z,13.23
2023-02-22T15:44:58.061Z,13.27
2023-02-22T15:47:29.391Z,13.21
2023-02-22T15:50:23.225Z,13.13
2023-02-22T15:53:00.199Z,13.03
2023-02-22T15:55:35.823Z,12.97
2023-02-22T15:58:14.896Z,12.91
2023-02-22T16:00:46.794Z,12.82
2023-02-22T16:03:28.261Z,12.94
2023-02-22T16:05:58.429Z,12.73
2023-02-22T16:08:52.607Z,12.83
2023-02-22T16:11:29.894Z,12.67
2023-02-22T16:14:04.757Z,12.66
2023-02-22T16:16:41.430Z,12.56
2023-02-22T16:19:17.606Z,12.56
2023-02-22T16:22:28.810Z,12.52
2023-02-22T16:25:17.824Z,12.50
2023-02-22T16:28:01.447Z,12.47
2023-02-22T16:30:39.360Z,12.35
2023-02-22T16:33:13.529Z,12.32
2023-02-22T16:35:43.310Z,12.24
2023-02-22T16:38:16.618Z,12.29
2023-02-22T16:40:54.599Z,12.41
2023-02-22T16:43:27.550Z,12.16
2023-02-22T16:45:54.761Z,12.21
2023-02-22T16:48:26.638Z,12.14
2023-02-22T16:50:58.714Z,11.96
2023-02-22T16:53:30.645Z,11.92
2023-02-22T16:56:04.498Z,11.81
2023-02-22T16:58:38.956Z,11.80
2023-02-22T17:01:06.572Z,11.70
2023-02-22T17:03:33.865Z,11.67
2023-02-22T17:06:01.355Z,11.72
2023-02-22T17:08:28.482Z,11.55
2023-02-22T17:10:57.679Z,11.58
2023-02-22T17:13:29.128Z,11.55
2023-02-22T17:15:57.888Z,11.76
2023-02-22T17:18:28.496Z,11.46
2023-02-22T17:20:56.504Z,11.28
2023-02-22T17:23:24.228Z,11.35
2023-02-22T17:26:03.276Z,11.13
2023-02-22T17:28:31.503Z,11.23
2023-02-22T17:31:01.393Z,11.07
2023-02-22T17:33:34.240Z,11.09
2023-02-22T17:36:04.927Z,11.20
2023-02-22T17:38:32.246Z,11.17
2023-02-22T17:41:01.329Z,11.04
2023-02-22T17:43:29.485Z,10.97
2023-02-22T17:45:57.185Z,10.90
2023-02-22T17:48:24.924Z,10.89
2023-02-22T17:50:53.079Z,10.96
2023-02-22T17:53:22.723Z,10.93
2023-02-22T17:55:50.543Z,11.06
2023-02-22T17:58:18.402Z,11.17
2023-02-22T18:00:49.850Z,10.95
2023-02-22T18:03:21.567Z,10.85
2023-02-22T18:05:54.492Z,11.17
2023-02-22T18:08:25.383Z,10.83
2023-02-22T18:10:56.327Z,10.76
2023-02-22T18:13:27.734Z,10.85
2023-02-22T18:15:59.836Z,11.05
2023-02-22T18:18:28.061Z,11.07
2023-02-22T18:20:59.363Z,11.20
2023-02-22T18:23:30.287Z,11.18
2023-02-22T18:26:14.852Z,10.96
2023-02-22T18:28:42.068Z,10.99
2023-02-22T18:31:15.354Z,10.94
2023-02-22T18:33:48.031Z,10.92
2023-02-22T18:36:17.635Z,11.00
2023-02-22T18:38:45.357Z,11.10
2023-02-22T18:41:16.849Z,10.95
2023-02-22T18:43:46.282Z,10.83
2023-02-22T18:46:16.346Z,10.96
2023-02-22T18:48:45.534Z,10.80
2023-02-22T18:51:17.258Z,10.74
2023-02-22T18:53:47.504Z,10.84
2023-02-22T18:56:21.581Z,10.74
2023-02-22T18:58:54.429Z,10.97
2023-02-22T19:01:22.683Z,11.02
2023-02-22T19:03:51.726Z,10.95
2023-02-22T19:06:22.398Z,10.79
2023-02-22T19:08:50.810Z,10.60
2023-02-22T19:11:22.806Z,10.76
2023-02-22T19:13:54.165Z,10.59
2023-02-22T19:16:23.964Z,10.43
2023-02-22T19:18:56.794Z,10.68
2023-02-22T19:21:25.971Z,10.62
2023-02-22T19:23:53.341Z,10.44
2023-02-22T19:26:24.661Z,10.41
2023-02-22T19:28:57.056Z,10.19
2023-02-22T19:31:33.453Z,10.49
2023-02-22T19:34:09.354Z,10.52
2023-02-22T19:36:44.807Z,10.19
2023-02-22T19:39:20.703Z,10.48
2023-02-22T19:41:47.873Z,10.40
2023-02-22T19:44:15.020Z,10.41
2023-02-22T19:46:42.213Z,10.33
2023-02-22T19:49:09.456Z,10.29
2023-02-22T19:51:37.470Z,10.24
2023-02-22T19:54:12.392Z,10.21
2023-02-22T19:56:39.524Z,10.13
2023-02-22T19:59:13.355Z,10.06
2023-02-22T20:01:44.158Z,10.17
2023-02-22T20:04:21.211Z,10.04
2023-02-22T20:06:54.747Z,9.92
2023-02-22T20:09:29.841Z,10.06
2023-02-22T20:11:57.413Z,10.17
2023-02-22T20:14:28.370Z,10.33
2023-02-22T20:16:57.262Z,10.26
2023-02-22T20:19:26.587Z,10.40
2023-02-22T20:21:55.965Z,10.18
2023-02-22T20:24:24.282Z,10.16
2023-02-22T20:26:55.650Z,10.15
2023-02-22T20:29:29.437Z,10.19
2023-02-22T20:31:59.513Z,10.22
2023-02-22T20:34:31.088Z,9.99
2023-02-22T20:36:59.483Z,9.83
2023-02-22T20:39:27.177Z,9.96
2023-02-22T20:41:54.609Z,9.96
2023-02-22T20:44:22.059Z,9.75
2023-02-22T20:46:49.248Z,9.75
2023-02-22T20:49:19.995Z,9.69
2023-02-22T20:51:48.693Z,9.63
2023-02-22T20:54:17.106Z,9.73
2023-02-22T20:56:46.614Z,9.96
2023-02-22T20:59:17.801Z,9.63
2023-02-22T21:01:47.432Z,9.53
2023-02-22T21:04:14.835Z,9.76
2023-02-22T21:06:43.003Z,9.47
2023-02-22T21:09:17.727Z,9.45
2023-02-22T21:11:45.594Z,9.55
2023-02-22T21:14:18.390Z,9.40
2023-02-22T21:16:49.915Z,9.42
2023-02-22T21:19:25.633Z,9.36
2023-02-22T21:21:58.221Z,9.30
2023-02-22T21:24:28.443Z,9.39
2023-02-22T21:26:58.961Z,9.40
2023-02-22T21:29:28.952Z,9.30
2023-02-22T21:31:56.629Z,9.39
2023-02-22T21:34:25.655Z,9.15
2023-02-22T21:36:53.248Z,9.15
2023-02-22T21:39:20.896Z,9.61
2023-02-22T21:41:51.628Z,9.39
2023-02-22T21:44:20.009Z,9.33
2023-02-22T21:46:50.803Z,9.09
2023-02-22T21:49:23.117Z,9.30
2023-02-22T21:51:51.827Z,9.45
2023-02-22T21:54:19.782Z,9.22
2023-02-22T21:56:47.809Z,9.31
2023-02-22T21:59:21.141Z,8.94
2023-02-22T22:01:55.290Z,9.00
2023-02-22T22:04:30.301Z,9.30
2023-02-22T22:07:00.026Z,9.03
2023-02-22T22:09:32.610Z,9.22
2023-02-22T22:12:04.872Z,8.93
2023-02-22T22:14:34.071Z,8.89
2023-02-22T22:17:02.746Z,8.77
2023-02-22T22:19:34.174Z,9.29
2023-02-22T22:22:01.428Z,8.91
2023-02-22T22:24:33.589Z,9.03
2023-02-22T22:27:03.763Z,9.32
2023-02-22T22:29:34.170Z,8.90
2023-02-22T22:32:02.234Z,8.72
2023-02-22T22:34:29.888Z,8.85
2023-02-22T22:36:58.094Z,8.61
2023-02-22T22:39:26.884Z,8.70
2023-02-22T22:41:54.604Z,8.64
2023-02-22T22:44:28.732Z,8.62
2023-02-22T22:46:55.878Z,8.64
2023-02-22T22:49:25.437Z,8.69
2023-02-22T22:51:53.371Z,9.00
2023-02-22T22:54:20.484Z,8.70
2023-02-22T22:56:47.624Z,8.70
2023-02-22T22:59:15.217Z,8.60
2023-02-22T23:01:44.602Z,8.52
2023-02-22T23:04:18.000Z,8.64
2023-02-22T23:06:50.496Z,8.52
2023-02-22T23:09:25.363Z,8.46
2023-02-22T23:12:08.484Z,9.07
2023-02-22T23:14:39.567Z,9.06
2023-02-22T23:17:26.720Z,9.19
2023-02-22T23:19:53.935Z,8.91
2023-02-22T23:22:21.201Z,9.03
2023-02-22T23:24:48.468Z,8.98
2023-02-22T23:27:15.685Z,8.94
2023-02-22T23:29:46.424Z,8.96
2023-02-22T23:32:14.213Z,9.17
2023-02-22T23:34:41.881Z,9.05
2023-02-22T23:37:10.458Z,8.69
2023-02-22T23:39:38.459Z,9.11
2023-02-22T23:42:08.698Z,8.80
2023-02-22T23:44:36.100Z,8.81
2023-02-22T23:47:04.305Z,9.08
2023-02-22T23:49:38.649Z,9.09
2023-02-22T23:52:08.378Z,9.01
2023-02-22T23:54:40.211Z,8.66
2023-02-22T23:57:08.764Z,8.70
2023-02-22T23:59:40.334Z,8.40
